Зима

Карта отелей и гостиниц, располагающихся рядом с аэропортом Зима :

Зима Иркутская область 53° 57' 25.9812" N, 102° 0' 41.94" E
Зима Иркутская область 53° 57' 25.9812" N, 102° 0' 41.94" E
Код аэродрома ИКАО
UINI
Код аэродрома RU
УИНИ
Координаты
N53.95722° E102.01165°
Превышение над уровнем моря
470
Основная полоса
13/31
Курс магнитный
133,1/313,1
Длина основной ВПП
1000
Ширина основной ВПП
60
Покрытие основной ВПП
Нетвёрдое (грунт)
Освещение ВПП
Нет
Тип: 
Аэродром
Класс аэродрома: 
Принадлежность: 
ГА
Статус: 
Недействующий
Сайт: 
E-mail аэродрома: 
Страна: 
Россия
Регион: 
Иркутская область
Город: 
Дополнительная информация: 
Площадка регулярно выкашивается, состояние грунта идеальное во всех направлениях. Посадка легких ВС (типа Цесна-172) возможна в любом направлении после осмотра площадки с воздуха. Иногда на площадке пасутся лошади.

Найти трансфер

С помощью этой формы Вы можете найти трансфер из аэропорта Зима в город, аэропорт или вокзал:

Карта места

Javascript is required to view this map.

Погода в аэропортах:

Авиационная погода в Екатеринбурге

Регион: 
Погода METAR: 
USSS 171530Z 34002MPS 290V030 9999 -SHRA BKN019CB 07/04 Q1006 R26L/290050 R26R/290032 NOSIG RMK QFE734/0979
Время наблюдения
2021-09-17T15:30:00Z
Температура C
7.0
Точка росы
4.0
Направление ветра
340
Скорость ветра (узлы)
4
Метео видимость
6.21
Явления погоды
-SHRA
Условия полета
MVFR
Аэропорт подробнее: 

Авиационная погода в Могилёве

Регион: 
Погода METAR: 
UMOO 171230Z 07005MPS 4800 -RA BR OVC005 08/07 Q1014 R13/290068 NOSIG RMK QBB160
Время наблюдения
2021-09-17T12:30:00Z
Температура C
8.0
Точка росы
7.0
Направление ветра
70
Скорость ветра (узлы)
10
Метео видимость
2.98
Явления погоды
-RA BR
Условия полета
IFR
Аэропорт подробнее: 

Авиационная погода в Ханты-Мансийске

Регион: 
Погода METAR: 
USHH 171530Z 30003MPS 240V330 9999 -RA BKN014 05/05 Q0991 R06/290050 TEMPO 3100 -RA BKN004
Время наблюдения
2021-09-17T15:30:00Z
Температура C
5.0
Точка росы
5.0
Направление ветра
300
Скорость ветра (узлы)
6
Метео видимость
6.21
Явления погоды
-RA
Условия полета
MVFR
Аэропорт подробнее: 

Авиационная погода в Перми

Регион: 
Погода METAR: 
USPP 171530Z 30002MPS 9999 -RA BKN038 06/06 Q1009 R21/290150 TEMPO 3000 -RA BKN005 RMK QFE746
Время наблюдения
2021-09-17T15:30:00Z
Температура C
6.0
Точка росы
6.0
Направление ветра
300
Скорость ветра (узлы)
4
Метео видимость
6.21
Явления погоды
-RA
Условия полета
VFR
Аэропорт подробнее: